Elwood, Kansas
Current Conditions -  °F | °C
As of 10:53 AM on Wednesday 26 Nov 2014 (Local Time) from KSTJ Reporting Station
Overcast Overcast  
Wind Chill: 29°   Ceiling: 2700
Heat Index: 40°   Visibility: 10mi
Dew Point: 33°   Wind: 25mph
Humidity: 77%   Direction: 310°NW
Pressure: 29.99"   Gusts: 32mph
Location:  39.76°N, 94.87°W
Report Text: KSTJ 261653Z 31022G28KT 10SM OVC027 04/01 A2999 RMK AO2 PK WND 32033/1622 RAB29E43 SLP160 P0000 T00440006
Loading
Personal Weather Stations






























Interactive Weather Map New forecast layout! Learn more

10-Day Weather Forecast

Advertisements
Track Severe Weather on mobile